Hanging Rock, Ohio
Current Conditions -  °F | °C
As of 4:35 PM on Wednesday 17 Dec 2014 (Local Time) from KDWU Reporting Station
Overcast Overcast  
Wind Chill: 31°   Ceiling: 2600
Heat Index: 36°   Visibility: 10mi
Dew Point: 25°   Wind: 6mph
Humidity: 65%   Direction: 320°NW
Pressure: 30.18"   Gusts: NA
Location:  38.545°N, 82.6629°W
Report Text: KDWU 172135Z AUTO 32005KT 10SM OVC026 02/M04 A3018 RMK AO1
Loading
Personal Weather Stations






























Interactive Weather Map New forecast layout! Learn more

10-Day Weather Forecast

Advertisements
Track Severe Weather on mobile